createdAt,value
2022-09-23T00:00:01.388Z,3.29
2022-09-23T00:01:23.278Z,3.97
2022-09-23T00:03:58.756Z,3.61
2022-09-23T00:05:20.301Z,5.31
2022-09-23T00:06:41.923Z,3.29
2022-09-23T00:08:04.576Z,4.00
2022-09-23T00:09:25.855Z,4.15
2022-09-23T00:10:47.414Z,3.46
2022-09-23T00:12:09.334Z,3.99
2022-09-23T00:13:30.697Z,3.29
2022-09-23T00:14:54.607Z,3.58
2022-09-23T00:16:18.738Z,3.89
2022-09-23T00:17:40.554Z,4.28
2022-09-23T00:19:02.495Z,3.66
2022-09-23T00:20:24.019Z,4.07
2022-09-23T00:21:44.940Z,3.14
2022-09-23T00:23:05.988Z,3.68
2022-09-23T00:24:27.198Z,3.87
2022-09-23T00:25:57.837Z,2.86
2022-09-23T00:27:19.179Z,2.91
2022-09-23T00:28:40.945Z,3.62
2022-09-23T00:30:03.949Z,3.89
2022-09-23T00:31:26.163Z,3.07
2022-09-23T00:32:47.685Z,3.62
2022-09-23T00:34:09.329Z,3.16
2022-09-23T00:35:32.326Z,3.04
2022-09-23T00:36:54.089Z,4.04
2022-09-23T00:38:15.422Z,2.20
2022-09-23T00:39:36.759Z,2.86
2022-09-23T00:40:57.877Z,4.19
2022-09-23T00:42:20.187Z,3.96
2022-09-23T00:43:47.423Z,2.93
2022-09-23T00:45:09.762Z,2.69
2022-09-23T00:46:35.852Z,4.06
2022-09-23T00:48:01.077Z,2.93
2022-09-23T00:50:39.528Z,2.92
2022-09-23T00:52:04.204Z,2.57
2022-09-23T00:53:25.553Z,2.86
2022-09-23T00:54:46.798Z,3.14
2022-09-23T00:56:09.619Z,2.79
2022-09-23T00:57:30.933Z,3.28
2022-09-23T00:58:52.178Z,3.01
2022-09-23T01:00:14.996Z,4.69
2022-09-23T01:01:37.499Z,2.34
2022-09-23T01:03:00.143Z,2.48
2022-09-23T01:04:22.720Z,3.60
2022-09-23T01:05:43.929Z,2.53
2022-09-23T01:07:05.031Z,3.53
2022-09-23T01:08:26.151Z,3.37
2022-09-23T01:09:47.571Z,4.07
2022-09-23T01:11:30.327Z,3.52
2022-09-23T01:13:07.599Z,3.37
2022-09-23T01:14:49.290Z,4.26
2022-09-23T01:16:34.706Z,3.53
2022-09-23T01:18:11.849Z,4.15
2022-09-23T01:19:37.348Z,4.40
2022-09-23T01:21:28.414Z,3.97
2022-09-23T01:22:59.786Z,5.63
2022-09-23T01:24:27.880Z,4.72
2022-09-23T01:25:56.215Z,6.63
2022-09-23T01:27:54.791Z,4.79
2022-09-23T01:29:44.097Z,4.12
2022-09-23T01:31:11.324Z,4.59
2022-09-23T01:32:57.016Z,5.32
2022-09-23T01:35:44.777Z,5.00
2022-09-23T01:37:12.519Z,4.80
2022-09-23T01:38:46.213Z,4.71
2022-09-23T01:40:10.796Z,4.54
2022-09-23T01:41:47.929Z,5.22
2022-09-23T01:43:12.529Z,5.39
2022-09-23T01:45:47.367Z,4.01
2022-09-23T01:48:36.108Z,4.50
2022-09-23T01:50:04.319Z,6.02
2022-09-23T01:52:43.900Z,4.91
2022-09-23T01:54:19.816Z,4.29
2022-09-23T01:55:43.306Z,4.36
2022-09-23T01:57:11.192Z,5.13
2022-09-23T01:58:47.844Z,4.13
2022-09-23T02:00:21.165Z,5.06
2022-09-23T02:01:49.118Z,5.29
2022-09-23T02:03:22.079Z,4.41
2022-09-23T02:04:55.978Z,4.78
2022-09-23T02:08:03.499Z,3.71
2022-09-23T02:09:34.309Z,4.92
2022-09-23T02:11:01.983Z,4.57
2022-09-23T02:12:30.378Z,4.28
2022-09-23T02:14:03.600Z,4.87
2022-09-23T02:15:29.070Z,4.22
2022-09-23T02:17:01.852Z,4.70
2022-09-23T02:20:07.248Z,4.02
2022-09-23T02:21:44.432Z,5.07
2022-09-23T02:23:18.534Z,4.71
2022-09-23T02:24:45.979Z,4.55
2022-09-23T02:26:30.457Z,4.86
2022-09-23T02:29:30.788Z,5.83
2022-09-23T02:30:55.730Z,5.35
2022-09-23T02:32:32.737Z,5.38
2022-09-23T02:35:29.747Z,5.94
2022-09-23T02:36:58.229Z,5.94
2022-09-23T02:38:39.779Z,6.67
2022-09-23T02:40:13.177Z,5.96
2022-09-23T02:41:46.246Z,4.97
2022-09-23T02:44:20.618Z,5.96
2022-09-23T02:45:42.445Z,6.30
2022-09-23T02:47:04.170Z,5.95
2022-09-23T02:48:33.877Z,6.21
2022-09-23T02:49:55.184Z,6.45
2022-09-23T02:51:16.732Z,6.66
2022-09-23T02:52:38.304Z,6.82
2022-09-23T02:53:59.428Z,7.25
2022-09-23T02:55:20.815Z,7.23
2022-09-23T02:56:41.980Z,7.04
2022-09-23T02:58:03.598Z,8.87
2022-09-23T02:59:25.043Z,7.97
2022-09-23T03:01:07.090Z,6.59
2022-09-23T03:02:35.289Z,7.97
2022-09-23T03:04:06.219Z,8.14
2022-09-23T03:05:28.212Z,8.31
2022-09-23T03:08:52.234Z,7.42
2022-09-23T03:10:24.102Z,9.53
2022-09-23T03:11:48.146Z,10.53
2022-09-23T03:13:17.513Z,8.68
2022-09-23T03:14:42.652Z,14.14
2022-09-23T03:16:13.721Z,8.28
2022-09-23T03:18:58.682Z,9.63
2022-09-23T03:20:35.841Z,7.70
2022-09-23T03:23:13.377Z,9.21
2022-09-23T03:24:35.374Z,8.25
2022-09-23T03:25:57.677Z,7.15
2022-09-23T03:27:21.452Z,5.12
2022-09-23T03:28:42.825Z,6.84
2022-09-23T03:30:04.961Z,7.15
2022-09-23T03:31:25.913Z,6.33
2022-09-23T03:32:46.953Z,6.77
2022-09-23T03:34:17.741Z,6.54
2022-09-23T03:36:55.919Z,8.33
2022-09-23T03:38:17.370Z,7.43
2022-09-23T03:39:53.854Z,6.66
2022-09-23T03:41:15.111Z,9.38
2022-09-23T03:42:37.848Z,6.29
2022-09-23T03:43:59.600Z,9.82
2022-09-23T03:46:38.247Z,7.28
2022-09-23T03:47:59.697Z,7.24
2022-09-23T03:50:39.520Z,7.50
2022-09-23T03:52:01.755Z,5.02
2022-09-23T03:53:23.083Z,6.78
2022-09-23T03:54:44.489Z,8.27
2022-09-23T03:56:05.966Z,9.09
2022-09-23T03:57:27.402Z,7.56
2022-09-23T03:58:49.264Z,8.64
2022-09-23T04:00:11.353Z,7.62
2022-09-23T04:01:33.623Z,7.03
2022-09-23T04:02:54.782Z,6.50
2022-09-23T04:04:16.171Z,7.23
2022-09-23T04:05:37.599Z,8.52
2022-09-23T04:06:59.986Z,7.66
2022-09-23T04:08:21.073Z,6.71
2022-09-23T04:09:42.499Z,7.88
2022-09-23T04:11:04.038Z,6.22
2022-09-23T04:12:25.264Z,7.31
2022-09-23T04:13:46.916Z,7.57
2022-09-23T04:15:08.870Z,8.54
2022-09-23T04:16:30.403Z,7.33
2022-09-23T04:17:51.788Z,10.34
2022-09-23T04:19:13.476Z,8.49
2022-09-23T04:20:35.082Z,7.87
2022-09-23T04:21:56.574Z,8.05
2022-09-23T04:23:18.028Z,8.50
2022-09-23T04:24:39.458Z,9.59
2022-09-23T04:26:01.652Z,11.06
2022-09-23T04:27:22.902Z,10.16
2022-09-23T04:28:44.331Z,10.79
2022-09-23T04:30:07.906Z,11.32
2022-09-23T04:31:30.915Z,11.35
2022-09-23T04:32:52.523Z,10.92
2022-09-23T04:34:15.369Z,10.28
2022-09-23T04:35:40.159Z,9.85
2022-09-23T04:37:00.075Z,12.23
2022-09-23T04:38:21.355Z,12.16
2022-09-23T04:39:43.214Z,11.16
2022-09-23T04:41:08.071Z,10.12
2022-09-23T04:42:31.548Z,10.34
2022-09-23T04:43:53.190Z,11.54
2022-09-23T04:45:14.489Z,9.01
2022-09-23T04:46:36.248Z,10.37
2022-09-23T04:49:14.881Z,10.04
2022-09-23T04:50:36.926Z,10.75
2022-09-23T04:51:59.851Z,8.91
2022-09-23T04:53:21.321Z,9.61
2022-09-23T04:54:42.767Z,10.61
2022-09-23T04:56:05.992Z,13.36
2022-09-23T04:58:48.884Z,10.33
2022-09-23T05:00:11.150Z,11.14
2022-09-23T05:01:34.609Z,10.94
2022-09-23T05:02:56.629Z,10.03
2022-09-23T05:04:17.694Z,11.99
2022-09-23T05:05:39.152Z,17.73
2022-09-23T05:07:03.223Z,10.25
2022-09-23T05:08:23.547Z,10.70
2022-09-23T05:10:58.143Z,8.82
2022-09-23T05:12:19.492Z,8.51
2022-09-23T05:13:41.067Z,9.17
2022-09-23T05:15:04.658Z,8.77
2022-09-23T05:16:26.222Z,12.12
2022-09-23T05:17:48.436Z,8.73
2022-09-23T05:19:10.166Z,11.71
2022-09-23T05:20:34.540Z,14.53
2022-09-23T05:21:57.246Z,15.21
2022-09-23T05:23:19.597Z,10.98
2022-09-23T05:24:40.973Z,11.77
2022-09-23T05:26:04.801Z,12.52
2022-09-23T05:27:26.117Z,10.66
2022-09-23T05:28:47.708Z,11.22
2022-09-23T05:30:12.676Z,8.08
2022-09-23T05:31:35.561Z,8.54
2022-09-23T05:32:57.594Z,9.10
2022-09-23T05:34:19.135Z,10.72
2022-09-23T05:35:46.000Z,10.46
2022-09-23T05:37:07.232Z,9.59
2022-09-23T05:38:28.864Z,11.17
2022-09-23T05:39:51.493Z,9.37
2022-09-23T05:41:13.349Z,9.02
2022-09-23T05:42:34.922Z,8.65
2022-09-23T05:43:56.121Z,10.07
2022-09-23T05:45:18.057Z,12.68
2022-09-23T05:46:40.332Z,9.08
2022-09-23T05:48:02.041Z,12.44
2022-09-23T05:49:37.631Z,11.54
2022-09-23T05:50:50.990Z,10.91
2022-09-23T05:52:12.297Z,10.99
2022-09-23T05:53:33.880Z,10.48
2022-09-23T05:54:55.436Z,10.62
2022-09-23T05:56:18.150Z,10.82
2022-09-23T05:57:39.553Z,10.63
2022-09-23T05:59:02.368Z,14.45
2022-09-23T06:00:24.133Z,12.10
2022-09-23T06:01:46.186Z,9.06
2022-09-23T06:04:27.267Z,13.12
2022-09-23T06:05:53.853Z,11.91
2022-09-23T06:07:16.741Z,13.42
2022-09-23T06:08:39.298Z,10.88
2022-09-23T06:10:00.531Z,11.04
2022-09-23T06:11:23.961Z,10.88
2022-09-23T06:12:46.133Z,13.64
2022-09-23T06:14:10.815Z,10.03
2022-09-23T06:15:33.911Z,12.37
2022-09-23T06:16:55.381Z,9.88
2022-09-23T06:18:16.372Z,9.17
2022-09-23T06:19:39.722Z,9.93
2022-09-23T06:22:26.551Z,8.08
2022-09-23T06:23:47.724Z,13.58
2022-09-23T06:25:10.260Z,12.41
2022-09-23T06:26:35.522Z,11.02
2022-09-23T06:27:57.018Z,8.87
2022-09-23T06:29:20.203Z,8.72
2022-09-23T06:30:41.599Z,7.92
2022-09-23T06:32:03.174Z,14.19
2022-09-23T06:33:34.421Z,9.93
2022-09-23T06:34:51.874Z,7.91
2022-09-23T06:36:14.750Z,10.46
2022-09-23T06:37:36.467Z,9.58
2022-09-23T06:38:58.049Z,8.97
2022-09-23T06:40:20.190Z,10.68
2022-09-23T06:41:43.824Z,7.29
2022-09-23T06:43:05.189Z,9.99
2022-09-23T06:44:26.821Z,8.88
2022-09-23T06:47:11.070Z,10.01
2022-09-23T06:48:32.953Z,13.24
2022-09-23T06:49:54.670Z,9.10
2022-09-23T06:51:16.903Z,14.21
2022-09-23T06:52:38.317Z,11.12
2022-09-23T06:54:00.394Z,10.21
2022-09-23T06:55:23.316Z,10.38
2022-09-23T06:56:44.820Z,11.43
2022-09-23T06:58:06.626Z,11.26
2022-09-23T06:59:29.657Z,13.12
2022-09-23T07:00:51.848Z,12.71
2022-09-23T07:02:14.424Z,5.79
2022-09-23T07:03:35.686Z,7.98
2022-09-23T07:04:57.049Z,9.66
2022-09-23T07:06:18.718Z,9.09
2022-09-23T07:07:40.067Z,10.78
2022-09-23T07:09:01.385Z,13.34
2022-09-23T07:10:23.228Z,18.38
2022-09-23T07:11:46.323Z,17.20
2022-09-23T07:14:28.658Z,9.12
2022-09-23T07:15:54.794Z,8.65
2022-09-23T07:17:15.896Z,7.23
2022-09-23T07:18:37.738Z,8.26
2022-09-23T07:19:59.367Z,8.71
2022-09-23T07:21:20.790Z,9.29
2022-09-23T07:22:41.989Z,13.16
2022-09-23T07:24:03.240Z,7.50
2022-09-23T07:25:24.683Z,12.34
2022-09-23T07:26:45.967Z,12.83
2022-09-23T07:28:07.190Z,7.99
2022-09-23T07:29:30.139Z,8.97
2022-09-23T07:31:00.001Z,9.49
2022-09-23T07:32:16.125Z,8.35
2022-09-23T07:33:39.185Z,9.73
2022-09-23T07:35:00.374Z,8.97
2022-09-23T07:36:23.369Z,8.52
2022-09-23T07:37:45.846Z,6.85
2022-09-23T07:39:11.367Z,12.41
2022-09-23T07:40:33.939Z,9.37
2022-09-23T07:41:55.431Z,16.38
2022-09-23T07:43:18.517Z,10.03
2022-09-23T07:44:41.062Z,12.95
2022-09-23T07:46:05.199Z,11.80
2022-09-23T07:47:26.566Z,10.06
2022-09-23T07:48:48.018Z,9.75
2022-09-23T07:50:11.676Z,8.10
2022-09-23T07:51:36.427Z,7.98
2022-09-23T07:52:57.839Z,8.08
2022-09-23T07:54:19.143Z,6.80
2022-09-23T07:55:41.021Z,8.16
2022-09-23T07:57:02.357Z,6.52
2022-09-23T07:58:25.534Z,12.91
2022-09-23T07:59:47.022Z,10.76
2022-09-23T08:01:09.075Z,9.30
2022-09-23T08:02:31.745Z,6.07
2022-09-23T08:03:53.560Z,8.47
2022-09-23T08:05:15.359Z,8.65
2022-09-23T08:06:42.341Z,8.55
2022-09-23T08:08:04.768Z,6.79
2022-09-23T08:10:39.749Z,6.30
2022-09-23T08:12:01.381Z,6.34
2022-09-23T08:13:22.691Z,7.80
2022-09-23T08:14:44.022Z,7.18
2022-09-23T08:16:07.464Z,7.25
2022-09-23T08:17:28.594Z,13.41
2022-09-23T08:18:50.489Z,9.04
2022-09-23T08:20:12.772Z,6.72
2022-09-23T08:21:35.905Z,7.47
2022-09-23T08:22:57.414Z,8.29
2022-09-23T08:24:19.548Z,10.97
2022-09-23T08:25:45.479Z,8.52
2022-09-23T08:27:08.912Z,6.91
2022-09-23T08:28:30.528Z,6.82
2022-09-23T08:29:52.324Z,9.08
2022-09-23T08:31:13.911Z,7.92
2022-09-23T08:32:39.935Z,8.32
2022-09-23T08:34:01.566Z,14.20
2022-09-23T08:35:23.169Z,15.71
2022-09-23T08:36:49.173Z,9.94
2022-09-23T08:38:16.350Z,7.72
2022-09-23T08:39:41.530Z,7.54
2022-09-23T08:41:24.115Z,9.17
2022-09-23T08:42:47.154Z,10.43
2022-09-23T08:44:15.438Z,8.12
2022-09-23T08:45:39.429Z,7.44
2022-09-23T08:47:10.206Z,7.36
2022-09-23T08:48:35.805Z,6.64
2022-09-23T08:50:20.666Z,6.28
2022-09-23T08:51:45.265Z,7.24
2022-09-23T08:53:31.294Z,8.24
2022-09-23T08:54:57.218Z,8.01
2022-09-23T08:58:23.909Z,9.06
2022-09-23T08:59:41.638Z,6.24
2022-09-23T09:01:19.813Z,7.70
2022-09-23T09:02:42.560Z,10.37
2022-09-23T09:04:23.379Z,9.24
2022-09-23T09:05:53.786Z,7.87
2022-09-23T09:07:35.592Z,6.80
2022-09-23T09:08:41.883Z,8.27
2022-09-23T09:11:16.871Z,8.01
2022-09-23T09:12:42.223Z,6.91
2022-09-23T09:14:08.181Z,8.09
2022-09-23T09:15:40.104Z,10.71
2022-09-23T09:17:06.848Z,5.94
2022-09-23T09:18:28.269Z,8.05
2022-09-23T09:20:00.240Z,12.88
2022-09-23T09:21:29.021Z,10.47
2022-09-23T09:22:56.985Z,7.91
2022-09-23T09:24:23.877Z,7.20
2022-09-23T09:25:48.143Z,9.15
2022-09-23T09:27:11.253Z,7.24
2022-09-23T09:29:56.100Z,6.51
2022-09-23T09:31:27.409Z,8.84
2022-09-23T09:32:54.216Z,7.91
2022-09-23T09:34:41.495Z,8.27
2022-09-23T09:36:16.204Z,8.48
2022-09-23T09:37:48.411Z,10.07
2022-09-23T09:39:11.568Z,9.32
2022-09-23T09:40:37.068Z,8.43
2022-09-23T09:42:01.426Z,7.67
2022-09-23T09:43:23.012Z,7.26
2022-09-23T09:44:53.950Z,8.92
2022-09-23T09:46:37.787Z,9.44
2022-09-23T09:48:17.092Z,8.29
2022-09-23T09:49:44.648Z,6.67
2022-09-23T09:52:44.938Z,5.34
2022-09-23T09:54:17.587Z,9.04
2022-09-23T09:55:39.141Z,8.71
2022-09-23T09:57:06.458Z,10.36
2022-09-23T09:58:34.696Z,6.26
2022-09-23T09:59:56.472Z,6.49
2022-09-23T10:02:41.200Z,6.88
2022-09-23T10:04:07.825Z,8.48
2022-09-23T10:05:39.014Z,13.32
2022-09-23T10:07:12.464Z,7.74
2022-09-23T10:08:37.233Z,10.13
2022-09-23T10:10:21.818Z,10.83
2022-09-23T10:11:27.215Z,11.72
2022-09-23T10:14:15.101Z,8.84
2022-09-23T10:15:45.035Z,10.91
2022-09-23T10:17:29.545Z,15.59
2022-09-23T10:18:51.306Z,11.18
2022-09-23T10:20:22.841Z,7.31
2022-09-23T10:21:44.624Z,8.18
2022-09-23T10:23:11.962Z,7.39
2022-09-23T10:24:33.629Z,10.21
2022-09-23T10:25:56.684Z,6.67
2022-09-23T10:27:33.487Z,5.79
2022-09-23T10:28:55.311Z,5.88
2022-09-23T10:30:21.527Z,5.74
2022-09-23T10:31:43.149Z,8.49
2022-09-23T10:33:08.067Z,6.86
2022-09-23T10:34:31.802Z,6.31
2022-09-23T13:15:29.195Z,7.17
2022-09-23T13:16:50.876Z,6.07
2022-09-23T13:18:24.436Z,8.18
2022-09-23T13:19:47.665Z,5.98
2022-09-23T13:21:17.794Z,5.61
2022-09-23T13:22:52.619Z,7.14
2022-09-23T13:24:35.132Z,5.41
2022-09-23T13:26:01.416Z,7.77
2022-09-23T13:27:32.423Z,6.37
2022-09-23T13:28:55.537Z,8.53
2022-09-23T13:30:25.783Z,6.48
2022-09-23T13:31:46.757Z,7.03
2022-09-23T15:54:58.568Z,6.50
2022-09-23T15:56:21.634Z,6.47
2022-09-23T15:59:05.757Z,5.24
2022-09-23T16:00:29.156Z,12.88
2022-09-23T16:01:51.569Z,9.70
2022-09-23T16:03:15.188Z,9.04
2022-09-23T16:04:38.458Z,6.09
2022-09-23T16:06:01.294Z,6.35
2022-09-23T16:07:24.986Z,6.38
2022-09-23T16:08:48.690Z,4.38
2022-09-23T16:10:12.953Z,5.87
2022-09-23T16:11:36.261Z,4.87
2022-09-23T16:14:26.207Z,4.26
2022-09-23T16:15:47.863Z,6.27
2022-09-23T16:17:15.870Z,6.02
2022-09-23T16:18:37.622Z,7.09
2022-09-23T16:20:03.035Z,8.32
2022-09-23T16:21:29.030Z,5.54
2022-09-23T16:23:01.226Z,3.61
2022-09-23T16:24:27.902Z,6.03
2022-09-23T16:25:46.582Z,4.15
2022-09-23T16:27:09.600Z,4.99
2022-09-23T16:28:33.767Z,9.43
2022-09-23T16:29:57.702Z,5.83
2022-09-23T16:31:21.925Z,7.09
2022-09-23T16:32:45.801Z,3.78
2022-09-23T16:34:07.803Z,5.62
2022-09-23T16:35:31.085Z,5.65
2022-09-23T16:36:53.984Z,4.77
2022-09-23T16:38:16.791Z,4.43
2022-09-23T16:39:40.738Z,7.60
2022-09-23T16:41:02.780Z,7.37
2022-09-23T16:42:25.338Z,11.99
2022-09-23T16:43:46.775Z,9.02
2022-09-23T16:46:20.066Z,9.64
2022-09-23T16:49:06.500Z,3.82
2022-09-23T16:50:31.594Z,3.63
2022-09-23T16:51:55.576Z,5.90
2022-09-23T16:53:20.651Z,4.77
2022-09-23T16:54:42.446Z,4.33
2022-09-23T16:56:07.905Z,3.02
2022-09-23T16:57:30.437Z,12.97
2022-09-23T16:58:51.829Z,5.51
2022-09-23T17:00:15.529Z,4.92
2022-09-23T17:01:39.107Z,4.77
2022-09-23T17:03:02.647Z,4.62
2022-09-23T17:04:29.281Z,5.57
2022-09-23T17:05:50.849Z,5.06
2022-09-23T17:07:12.086Z,5.09
2022-09-23T17:08:33.181Z,7.33
2022-09-23T17:09:54.512Z,9.46
2022-09-23T17:11:15.909Z,11.21
2022-09-23T17:12:37.474Z,15.03
2022-09-23T17:13:58.801Z,13.03
2022-09-23T17:15:21.256Z,15.61
2022-09-23T17:16:42.561Z,17.19
2022-09-23T17:18:05.634Z,24.18
2022-09-23T17:19:27.186Z,23.93
2022-09-23T17:22:20.119Z,23.76
2022-09-23T17:23:41.934Z,20.39
2022-09-23T17:25:04.253Z,20.83
2022-09-23T17:26:25.786Z,17.45
2022-09-23T17:27:47.967Z,13.78
2022-09-23T17:29:09.658Z,12.12
2022-09-23T17:30:33.347Z,11.78
2022-09-23T17:31:54.686Z,12.28
2022-09-23T17:33:16.331Z,10.09
2022-09-23T17:34:37.810Z,7.09
2022-09-23T17:35:59.058Z,4.16
2022-09-23T17:37:20.252Z,4.74
2022-09-23T17:38:42.417Z,4.09
2022-09-23T17:40:06.048Z,3.61
2022-09-23T17:41:27.622Z,5.68
2022-09-23T17:42:48.760Z,4.72
2022-09-23T17:44:10.214Z,5.59
2022-09-23T17:45:35.817Z,4.68
2022-09-23T17:46:57.138Z,3.98
2022-09-23T17:48:19.495Z,5.66
2022-09-23T17:49:42.449Z,4.12
2022-09-23T17:51:05.807Z,3.49
2022-09-23T17:53:48.265Z,4.58
2022-09-23T17:55:10.535Z,5.34
2022-09-23T17:56:32.345Z,11.76
2022-09-23T17:57:53.726Z,3.36
2022-09-23T17:59:15.385Z,9.15
2022-09-23T18:00:37.310Z,4.14
2022-09-23T18:01:59.022Z,3.96
2022-09-23T18:03:21.009Z,3.69
2022-09-23T18:04:42.107Z,5.31
2022-09-23T18:06:17.318Z,10.77
2022-09-23T18:07:38.704Z,6.19
2022-09-23T18:09:00.326Z,6.57
2022-09-23T18:10:21.909Z,7.20
2022-09-23T18:11:44.598Z,2.46
2022-09-23T18:13:05.740Z,4.16
2022-09-23T18:14:27.478Z,4.67
2022-09-23T18:15:48.902Z,3.97
2022-09-23T18:17:10.550Z,4.26
2022-09-23T18:18:32.160Z,3.54
2022-09-23T18:19:53.590Z,5.92
2022-09-23T18:21:15.156Z,6.30
2022-09-23T18:22:36.742Z,3.80
2022-09-23T18:24:21.421Z,3.57
2022-09-23T18:25:38.289Z,3.22
2022-09-23T18:28:05.554Z,4.22
2022-09-23T18:29:26.863Z,5.69
2022-09-23T18:30:56.016Z,3.48
2022-09-23T18:32:17.402Z,4.39
2022-09-23T18:33:39.117Z,9.41
2022-09-23T18:35:01.784Z,3.49
2022-09-23T18:36:23.176Z,4.43
2022-09-23T18:37:44.445Z,3.47
2022-09-23T18:39:06.099Z,4.02
2022-09-23T18:40:27.467Z,4.09
2022-09-23T18:41:48.878Z,7.98
2022-09-23T18:43:10.183Z,4.27
2022-09-23T18:44:31.533Z,3.71
2022-09-23T18:45:57.539Z,2.85
2022-09-23T18:47:19.124Z,3.91
2022-09-23T18:48:40.508Z,3.38
2022-09-23T18:50:01.900Z,4.82
2022-09-23T18:51:24.534Z,4.07
2022-09-23T18:52:45.637Z,2.97
2022-09-23T18:54:08.069Z,4.42
2022-09-23T18:55:35.031Z,3.98
2022-09-23T18:56:58.972Z,6.19
2022-09-23T18:58:20.606Z,3.65
2022-09-23T18:59:43.108Z,3.02
2022-09-23T19:01:08.366Z,3.40
2022-09-23T19:02:30.994Z,3.12
2022-09-23T19:03:55.659Z,3.98
2022-09-23T19:05:16.779Z,2.81
2022-09-23T19:06:38.330Z,5.72
2022-09-23T19:07:59.487Z,5.91
2022-09-23T19:09:21.145Z,3.92
2022-09-23T19:10:43.040Z,5.09
2022-09-23T19:12:04.587Z,6.04
2022-09-23T19:13:28.117Z,4.24
2022-09-23T19:14:49.450Z,4.45
2022-09-23T19:16:13.775Z,6.30
2022-09-23T19:17:34.949Z,6.54
2022-09-23T19:18:58.327Z,8.15
2022-09-23T19:20:19.954Z,5.27
2022-09-23T19:21:41.387Z,3.06
2022-09-23T19:23:03.419Z,3.76
2022-09-23T19:24:26.559Z,6.03
2022-09-23T19:25:48.153Z,7.62
2022-09-23T19:27:09.365Z,6.72
2022-09-23T19:28:30.705Z,4.68
2022-09-23T19:29:51.813Z,3.38
2022-09-23T19:32:26.457Z,5.62
2022-09-23T19:35:08.853Z,2.18
2022-09-23T19:37:45.890Z,4.08
2022-09-23T19:39:09.775Z,4.01
2022-09-23T19:40:31.615Z,3.15
2022-09-23T19:41:53.708Z,3.87
2022-09-23T19:43:15.240Z,3.30
2022-09-23T19:44:36.440Z,3.26
2022-09-23T19:45:58.139Z,7.44
2022-09-23T19:47:19.359Z,4.65
2022-09-23T19:48:41.896Z,3.20
2022-09-23T19:50:04.102Z,4.11
2022-09-23T19:51:25.897Z,3.62
2022-09-23T19:52:48.053Z,4.29
2022-09-23T19:54:09.595Z,5.12
2022-09-23T19:55:32.966Z,5.37
2022-09-23T19:56:54.512Z,4.08
2022-09-23T19:58:16.143Z,3.40
2022-09-23T19:59:37.281Z,4.78
2022-09-23T20:01:00.026Z,3.01
2022-09-23T20:02:21.594Z,3.25
2022-09-23T20:04:58.081Z,3.67
2022-09-23T20:06:19.677Z,4.07
2022-09-23T20:07:41.262Z,6.27
2022-09-23T20:09:02.695Z,4.35
2022-09-23T20:10:24.628Z,3.94
2022-09-23T20:11:46.386Z,4.30
2022-09-23T20:13:07.793Z,5.69
2022-09-23T20:14:31.155Z,4.42
2022-09-23T20:17:13.960Z,6.46
2022-09-23T20:18:38.664Z,3.81
2022-09-23T20:20:00.572Z,4.97
2022-09-23T20:21:22.157Z,8.28
2022-09-23T20:22:43.571Z,6.53
2022-09-23T20:24:05.264Z,6.71
2022-09-23T20:25:26.710Z,9.59
2022-09-23T20:26:48.272Z,8.66
2022-09-23T20:28:09.802Z,5.01
2022-09-23T20:29:31.232Z,3.54
2022-09-23T20:30:56.536Z,3.89
2022-09-23T20:32:18.516Z,6.85
2022-09-23T20:33:39.625Z,4.66
2022-09-23T20:35:00.691Z,4.77
2022-09-23T20:36:22.107Z,4.16
2022-09-23T20:37:43.266Z,3.85
2022-09-23T20:39:04.954Z,4.69
2022-09-23T20:40:27.575Z,3.29
2022-09-23T20:41:48.990Z,4.45
2022-09-23T20:43:12.068Z,4.79
2022-09-23T20:44:33.359Z,4.27
2022-09-23T20:45:54.828Z,6.66
2022-09-23T20:47:18.302Z,5.44
2022-09-23T20:48:39.650Z,3.76
2022-09-23T20:50:01.392Z,3.43
2022-09-23T20:51:23.493Z,3.83
2022-09-23T20:52:45.149Z,4.41
2022-09-23T20:54:06.596Z,3.78
2022-09-23T20:55:28.046Z,3.20
2022-09-23T20:56:49.684Z,5.01
2022-09-23T20:58:11.278Z,5.16
2022-09-23T20:59:33.280Z,5.94
2022-09-23T21:02:14.828Z,4.57
2022-09-23T21:03:40.258Z,4.50
2022-09-23T21:05:02.386Z,4.76
2022-09-23T21:06:23.585Z,8.44
2022-09-23T21:07:47.731Z,6.17
2022-09-23T21:09:09.140Z,6.94
2022-09-23T21:10:32.788Z,5.22
2022-09-23T21:11:54.547Z,5.56
2022-09-23T21:13:15.832Z,5.46
2022-09-23T21:14:38.149Z,5.88
2022-09-23T21:17:15.994Z,3.44
2022-09-23T21:18:37.559Z,4.35
2022-09-23T21:19:59.114Z,4.72
2022-09-23T21:22:44.433Z,5.83
2022-09-23T21:25:30.970Z,4.94
2022-09-23T21:26:52.461Z,5.22
2022-09-23T21:28:14.175Z,4.53
2022-09-23T21:29:36.070Z,4.48
2022-09-23T21:31:05.986Z,5.10
2022-09-23T21:32:27.597Z,4.25
2022-09-23T21:33:55.572Z,5.08
2022-09-23T21:35:17.137Z,5.43
2022-09-23T21:36:39.231Z,4.92
2022-09-23T21:38:00.671Z,5.41
2022-09-23T21:39:22.229Z,3.89
2022-09-23T21:40:43.374Z,5.93
2022-09-23T21:42:04.817Z,6.37
2022-09-23T21:43:27.068Z,4.91
2022-09-23T21:45:58.510Z,6.82
2022-09-23T21:47:19.937Z,5.08
2022-09-23T21:48:41.605Z,5.13
2022-09-23T21:50:03.159Z,4.48
2022-09-23T21:51:26.057Z,6.43
2022-09-23T21:54:12.996Z,4.78
2022-09-23T21:55:34.802Z,8.07
2022-09-23T21:56:56.300Z,7.79
2022-09-23T21:58:17.415Z,5.41
2022-09-23T21:59:38.955Z,16.48
2022-09-23T22:01:01.238Z,14.79
2022-09-23T22:02:23.564Z,10.37
2022-09-23T22:05:00.740Z,4.01
2022-09-23T22:07:42.364Z,4.18
2022-09-23T22:09:05.664Z,4.64
2022-09-23T22:10:27.121Z,4.84
2022-09-23T22:11:48.789Z,4.08
2022-09-23T22:13:12.895Z,3.67
2022-09-23T22:14:33.366Z,3.51
2022-09-23T22:15:54.918Z,3.91
2022-09-23T22:17:16.017Z,3.73
2022-09-23T22:18:37.356Z,3.87
2022-09-23T22:19:59.046Z,3.62
2022-09-23T22:21:24.644Z,3.90
2022-09-23T22:22:46.301Z,4.92
2022-09-23T22:24:10.965Z,5.21
2022-09-23T22:25:34.952Z,5.25
2022-09-23T22:26:56.022Z,4.69
2022-09-23T22:28:17.392Z,4.76
2022-09-23T22:29:38.657Z,4.36
2022-09-23T22:31:00.294Z,6.08
2022-09-23T22:32:21.586Z,4.46
2022-09-23T22:33:42.959Z,6.05
2022-09-23T22:35:06.824Z,4.05
2022-09-23T22:36:27.916Z,7.75
2022-09-23T22:37:49.520Z,4.68
2022-09-23T22:39:10.607Z,6.22
2022-09-23T22:40:33.935Z,3.70
2022-09-23T22:41:55.786Z,4.35
2022-09-23T22:43:17.268Z,4.95
2022-09-23T22:44:38.783Z,4.51
2022-09-23T22:46:00.138Z,4.55
2022-09-23T22:47:21.548Z,4.36
2022-09-23T22:48:43.378Z,3.64
2022-09-23T22:50:06.022Z,5.73
2022-09-23T22:51:27.222Z,6.36
2022-09-23T22:52:48.556Z,6.61
2022-09-23T22:54:10.389Z,6.43
2022-09-23T22:55:33.399Z,10.39
2022-09-23T22:56:54.430Z,6.34
2022-09-23T22:58:31.591Z,5.26
2022-09-23T22:59:38.929Z,5.89
2022-09-23T23:01:00.336Z,5.28
2022-09-23T23:02:21.892Z,4.47
2022-09-23T23:03:43.152Z,5.06
2022-09-23T23:05:05.735Z,4.00
2022-09-23T23:06:27.894Z,6.01
2022-09-23T23:07:49.283Z,5.42
2022-09-23T23:09:13.361Z,4.33
2022-09-23T23:10:35.778Z,3.66
2022-09-23T23:11:56.873Z,4.23
2022-09-23T23:13:18.538Z,5.77
2022-09-23T23:14:39.942Z,5.42
2022-09-23T23:16:05.350Z,4.05
2022-09-23T23:17:26.503Z,4.34
2022-09-23T23:18:47.617Z,5.17
2022-09-23T23:20:09.528Z,3.98
2022-09-23T23:21:31.369Z,4.57
2022-09-23T23:22:52.505Z,5.42
2022-09-23T23:24:18.650Z,4.04
2022-09-23T23:25:39.920Z,6.27
2022-09-23T23:27:01.805Z,4.00
2022-09-23T23:28:23.265Z,5.36
2022-09-23T23:29:44.707Z,5.89
2022-09-23T23:31:07.227Z,7.42
2022-09-23T23:32:29.184Z,7.03
2022-09-23T23:33:50.710Z,5.35
2022-09-23T23:35:12.082Z,4.81
2022-09-23T23:36:34.158Z,8.41
2022-09-23T23:37:55.245Z,6.17
2022-09-23T23:39:16.949Z,5.04
2022-09-23T23:40:38.609Z,4.50
2022-09-23T23:41:59.881Z,5.28
2022-09-23T23:43:22.179Z,5.93
2022-09-23T23:44:43.401Z,5.05
2022-09-23T23:47:14.859Z,4.39
2022-09-23T23:48:36.896Z,4.77
2022-09-23T23:49:58.269Z,5.84
2022-09-23T23:51:19.530Z,4.72
2022-09-23T23:52:41.007Z,4.11
2022-09-23T23:54:02.199Z,5.38
2022-09-23T23:55:23.502Z,6.98
2022-09-23T23:56:44.885Z,6.18
2022-09-23T23:58:06.431Z,4.47
2022-09-23T23:59:28.146Z,4.24
